Time,TemperatureF,DewpointF,PressureIn,WindDirection,WindDirectionDegrees,WindSpeedMPH,WindSpeedGustMPH,Humidity,HourlyPrecipIn,Conditions,Clouds,dailyrainin,SoftwareType,DateUTC
2013-03-07 00:01:00,29.0,20.0,30.22,ESE,115,5.0,6.0,68,-99.99,,,-99.99,,2013-03-07 06:01:00,
2013-03-07 00:11:00,29.0,19.0,30.22,East,100,5.0,8.0,67,-99.99,,,-99.99,,2013-03-07 06:11:00,
2013-03-07 00:21:00,29.0,19.0,30.22,East,100,5.0,8.0,67,-99.99,,,-99.99,,2013-03-07 06:21:00,
2013-03-07 00:32:00,29.0,20.0,30.21,ESE,105,5.0,9.0,68,-99.99,,,-99.99,,2013-03-07 06:32:00,
2013-03-07 00:42:00,29.0,20.0,30.22,ESE,105,5.0,7.0,68,-99.99,,,-99.99,,2013-03-07 06:42:00,
2013-03-07 00:51:00,29.0,20.0,30.22,ESE,105,5.0,8.0,68,-99.99,,,-99.99,,2013-03-07 06:51:00,
2013-03-07 01:01:00,29.0,20.0,30.22,ESE,105,5.0,8.0,68,-99.99,,,-99.99,,2013-03-07 07:01:00,
2013-03-07 01:11:00,29.0,20.0,30.22,ESE,120,5.0,9.0,68,-99.99,,,-99.99,,2013-03-07 07:11:00,
2013-03-07 01:21:00,29.0,20.0,30.22,ESE,120,5.0,9.0,68,-99.99,,,-99.99,,2013-03-07 07:21:00,
2013-03-07 01:32:00,29.0,20.0,30.23,ESE,120,4.0,8.0,69,-99.99,,,-99.99,,2013-03-07 07:32:00,
2013-03-07 01:42:00,29.0,20.0,30.23,SE,125,4.0,7.0,70,-99.99,,,-99.99,,2013-03-07 07:42:00,
2013-03-07 01:52:00,29.0,20.0,30.23,SE,125,4.0,7.0,70,-99.99,,,-99.99,,2013-03-07 07:52:00,
2013-03-07 02:02:00,29.0,20.0,30.23,SE,125,5.0,8.0,70,-99.99,,,-99.99,,2013-03-07 08:02:00,
2013-03-07 02:12:00,29.0,21.0,30.24,SE,125,4.0,7.0,70,-99.99,,,-99.99,,2013-03-07 08:12:00,
2013-03-07 02:22:00,29.0,21.0,30.24,SE,125,4.0,7.0,70,-99.99,,,-99.99,,2013-03-07 08:22:00,
2013-03-07 02:33:00,29.0,21.0,30.24,SE,125,5.0,7.0,70,-99.99,,,-99.99,,2013-03-07 08:33:00,
2013-03-07 02:44:00,29.0,20.0,30.24,SE,125,5.0,7.0,70,-99.99,,,-99.99,,2013-03-07 08:44:00,
2013-03-07 02:53:00,29.0,20.0,30.24,SE,125,5.0,7.0,70,-99.99,,,-99.99,,2013-03-07 08:53:00,
2013-03-07 03:03:00,29.0,20.0,30.24,SE,135,3.0,6.0,71,-99.99,,,-99.99,,2013-03-07 09:03:00,
2013-03-07 03:13:00,29.0,20.0,30.23,SSE,150,6.0,8.0,71,-99.99,,,-99.99,,2013-03-07 09:13:00,
2013-03-07 03:23:00,29.0,20.0,30.23,SSE,150,6.0,8.0,71,-99.99,,,-99.99,,2013-03-07 09:23:00,
2013-03-07 03:33:00,29.0,21.0,30.23,SE,135,8.0,11.0,72,-99.99,,,-99.99,,2013-03-07 09:33:00,
2013-03-07 03:42:00,29.0,21.0,30.22,SE,140,7.0,11.0,71,-99.99,,,-99.99,,2013-03-07 09:42:00,
2013-03-07 03:52:00,29.0,21.0,30.22,SE,140,7.0,11.0,71,-99.99,,,-99.99,,2013-03-07 09:52:00,
2013-03-07 04:03:00,29.0,21.0,30.23,SE,140,7.0,11.0,71,-99.99,,,-99.99,,2013-03-07 10:03:00,
2013-03-07 04:13:00,29.0,21.0,30.23,SE,135,6.0,10.0,71,-99.99,,,-99.99,,2013-03-07 10:13:00,
2013-03-07 04:23:00,29.0,21.0,30.23,SE,135,6.0,10.0,71,-99.99,,,-99.99,,2013-03-07 10:23:00,
2013-03-07 04:33:00,29.0,21.0,30.23,SE,140,6.0,9.0,72,-99.99,,,-99.99,,2013-03-07 10:33:00,
2013-03-07 04:42:00,29.0,21.0,30.23,SE,145,6.0,9.0,71,-99.99,,,-99.99,,2013-03-07 10:42:00,
2013-03-07 04:52:00,29.0,21.0,30.23,SE,145,6.0,9.0,71,-99.99,,,-99.99,,2013-03-07 10:52:00,
2013-03-07 05:03:00,29.0,21.0,30.23,SE,130,7.0,10.0,71,-99.99,,,-99.99,,2013-03-07 11:03:00,
2013-03-07 05:12:00,29.0,21.0,30.23,SE,125,7.0,10.0,71,-99.99,,,-99.99,,2013-03-07 11:12:00,
2013-03-07 05:23:00,29.0,21.0,30.23,SE,125,7.0,10.0,71,-99.99,,,-99.99,,2013-03-07 11:23:00,
2013-03-07 05:33:00,29.0,21.0,30.22,SE,140,6.0,10.0,72,-99.99,,,-99.99,,2013-03-07 11:33:00,
2013-03-07 05:43:00,29.0,21.0,30.22,SE,135,7.0,11.0,71,-99.99,,,-99.99,,2013-03-07 11:43:00,
2013-03-07 05:53:00,29.0,21.0,30.22,SE,135,7.0,11.0,71,-99.99,,,-99.99,,2013-03-07 11:53:00,
2013-03-07 06:03:00,29.0,21.0,30.23,SSE,150,6.0,10.0,72,-99.99,,,-99.99,,2013-03-07 12:03:00,
2013-03-07 06:12:00,29.0,21.0,30.23,SE,140,6.0,10.0,72,-99.99,,,-99.99,,2013-03-07 12:12:00,
2013-03-07 06:23:00,29.0,21.0,30.23,SE,140,6.0,10.0,72,-99.99,,,-99.99,,2013-03-07 12:23:00,
2013-03-07 06:33:00,28.0,21.0,30.23,SE,145,6.0,10.0,73,-99.99,,,-99.99,,2013-03-07 12:33:00,
2013-03-07 06:42:00,28.0,21.0,30.22,SE,140,5.0,9.0,73,-99.99,,,-99.99,,2013-03-07 12:42:00,
2013-03-07 06:52:00,28.0,21.0,30.22,SE,140,5.0,9.0,73,-99.99,,,-99.99,,2013-03-07 12:52:00,
2013-03-07 07:02:00,28.0,21.0,30.23,SE,145,4.0,7.0,73,-99.99,,,-99.99,,2013-03-07 13:02:00,
2013-03-07 07:12:00,28.0,21.0,30.22,SE,145,6.0,8.0,73,-99.99,,,-99.99,,2013-03-07 13:12:00,
2013-03-07 07:22:00,28.0,21.0,30.22,SE,145,6.0,8.0,73,-99.99,,,-99.99,,2013-03-07 13:22:00,
2013-03-07 07:32:00,29.0,21.0,30.23,SSE,150,7.0,10.0,73,-99.99,,,-99.99,,2013-03-07 13:32:00,
2013-03-07 07:42:00,29.0,21.0,30.23,SSE,150,7.0,10.0,73,-99.99,,,-99.99,,2013-03-07 13:42:00,
2013-03-07 07:52:00,29.0,21.0,30.23,SSE,150,7.0,10.0,73,-99.99,,,-99.99,,2013-03-07 13:52:00,
2013-03-07 08:02:00,30.0,22.0,30.24,SSE,155,7.0,10.0,72,-99.99,,,-99.99,,2013-03-07 14:02:00,
2013-03-07 08:12:00,30.0,22.0,30.24,SE,145,9.0,13.0,71,-99.99,,,-99.99,,2013-03-07 14:12:00,
2013-03-07 08:23:00,30.0,22.0,30.24,SE,145,9.0,13.0,71,-99.99,,,-99.99,,2013-03-07 14:23:00,
2013-03-07 08:33:00,31.0,23.0,30.25,SSE,165,9.0,12.0,70,-99.99,,,-99.99,,2013-03-07 14:33:00,
2013-03-07 08:42:00,32.0,23.0,30.25,SSE,155,10.0,14.0,69,-99.99,,,-99.99,,2013-03-07 14:42:00,
2013-03-07 08:53:00,32.0,23.0,30.25,SSE,155,10.0,14.0,69,-99.99,,,-99.99,,2013-03-07 14:53:00,
2013-03-07 09:03:00,34.0,25.0,30.26,SSE,165,8.0,15.0,69,-99.99,,,-99.99,,2013-03-07 15:03:00,
2013-03-07 09:12:00,35.0,25.0,30.25,South,175,11.0,17.0,68,-99.99,,,-99.99,,2013-03-07 15:12:00,
2013-03-07 09:23:00,35.0,25.0,30.25,South,175,11.0,17.0,68,-99.99,,,-99.99,,2013-03-07 15:23:00,
2013-03-07 09:32:00,36.0,26.0,30.25,South,185,13.0,20.0,66,-99.99,,,-99.99,,2013-03-07 15:32:00,
2013-03-07 09:42:00,36.0,26.0,30.26,South,185,12.0,19.0,65,-99.99,,,-99.99,,2013-03-07 15:42:00,
2013-03-07 09:52:00,36.0,26.0,30.26,South,185,12.0,19.0,65,-99.99,,,-99.99,,2013-03-07 15:52:00,
2013-03-07 10:02:00,38.0,27.0,30.26,South,180,16.0,19.0,62,-99.99,,,-99.99,,2013-03-07 16:02:00,
2013-03-07 10:13:00,39.0,27.0,30.26,South,185,13.0,19.0,61,-99.99,,,-99.99,,2013-03-07 16:13:00,
2013-03-07 10:23:00,39.0,27.0,30.26,South,185,13.0,19.0,61,-99.99,,,-99.99,,2013-03-07 16:23:00,
2013-03-07 10:32:00,41.0,28.0,30.26,South,180,12.0,16.0,59,-99.99,,,-99.99,,2013-03-07 16:32:00,
2013-03-07 10:43:00,42.0,28.0,30.26,South,175,11.0,16.0,57,-99.99,,,-99.99,,2013-03-07 16:43:00,
2013-03-07 10:52:00,42.0,28.0,30.26,South,175,11.0,16.0,57,-99.99,,,-99.99,,2013-03-07 16:52:00,
2013-03-07 11:02:00,45.0,29.0,30.26,SSW,205,10.0,16.0,55,-99.99,,,-99.99,,2013-03-07 17:02:00,
2013-03-07 11:12:00,45.0,28.0,30.26,South,185,12.0,16.0,52,-99.99,,,-99.99,,2013-03-07 17:12:00,
2013-03-07 11:22:00,45.0,28.0,30.26,South,185,12.0,16.0,52,-99.99,,,-99.99,,2013-03-07 17:22:00,
2013-03-07 11:33:00,46.0,29.0,30.26,SSW,205,7.0,14.0,51,-99.99,,,-99.99,,2013-03-07 17:33:00,
2013-03-07 11:43:00,47.0,27.0,30.26,SSW,195,11.0,15.0,46,-99.99,,,-99.99,,2013-03-07 17:43:00,
2013-03-07 11:53:00,47.0,27.0,30.26,SSW,195,11.0,15.0,46,-99.99,,,-99.99,,2013-03-07 17:53:00,
2013-03-07 12:12:00,49.0,29.0,30.25,South,185,9.0,14.0,46,-99.99,,,-99.99,,2013-03-07 18:12:00,
2013-03-07 12:22:00,49.0,29.0,30.25,South,185,9.0,14.0,46,-99.99,,,-99.99,,2013-03-07 18:22:00,
2013-03-07 12:32:00,50.0,27.0,30.25,SSW,205,10.0,13.0,41,-99.99,,,-99.99,,2013-03-07 18:32:00,
2013-03-07 12:42:00,51.0,29.0,30.25,South,170,9.0,13.0,42,-99.99,,,-99.99,,2013-03-07 18:42:00,
2013-03-07 12:52:00,51.0,29.0,30.25,South,170,9.0,13.0,42,-99.99,,,-99.99,,2013-03-07 18:52:00,
2013-03-07 13:03:00,52.0,27.0,30.24,South,175,7.0,14.0,38,-99.99,,,-99.99,,2013-03-07 19:03:00,
2013-03-07 13:12:00,52.0,27.0,30.23,South,180,12.0,16.0,38,-99.99,,,-99.99,,2013-03-07 19:12:00,
2013-03-07 13:23:00,52.0,27.0,30.23,South,180,12.0,16.0,38,-99.99,,,-99.99,,2013-03-07 19:23:00,
2013-03-07 13:35:00,53.0,28.0,30.23,SE,145,2.0,13.0,38,-99.99,,,-99.99,,2013-03-07 19:35:00,
2013-03-07 13:43:00,54.0,31.0,30.22,SSE,155,7.0,15.0,41,-99.99,,,-99.99,,2013-03-07 19:43:00,
2013-03-07 13:52:00,55.0,29.0,30.21,South,175,10.0,15.0,37,-99.99,,,-99.99,,2013-03-07 19:52:00,
2013-03-07 14:02:00,55.0,29.0,30.21,South,175,10.0,15.0,37,-99.99,,,-99.99,,2013-03-07 20:02:00,
2013-03-07 14:13:00,55.0,27.0,30.21,SW,215,8.0,13.0,34,-99.99,,,-99.99,,2013-03-07 20:13:00,
2013-03-07 14:22:00,55.0,27.0,30.21,SW,215,8.0,13.0,34,-99.99,,,-99.99,,2013-03-07 20:22:00,
2013-03-07 14:33:00,56.0,28.0,30.20,South,180,9.0,15.0,34,-99.99,,,-99.99,,2013-03-07 20:33:00,
2013-03-07 14:42:00,56.0,28.0,30.19,SSE,155,11.0,18.0,34,-99.99,,,-99.99,,2013-03-07 20:42:00,
2013-03-07 14:53:00,56.0,28.0,30.19,SSE,155,11.0,18.0,34,-99.99,,,-99.99,,2013-03-07 20:53:00,
2013-03-07 15:02:00,57.0,27.0,30.18,South,170,11.0,17.0,31,-99.99,,,-99.99,,2013-03-07 21:02:00,
2013-03-07 15:12:00,56.0,28.0,30.18,SSW,195,7.0,17.0,33,-99.99,,,-99.99,,2013-03-07 21:12:00,
2013-03-07 15:22:00,56.0,28.0,30.18,SSW,195,7.0,17.0,33,-99.99,,,-99.99,,2013-03-07 21:22:00,
2013-03-07 15:33:00,57.0,26.0,30.18,SE,145,9.0,17.0,30,-99.99,,,-99.99,,2013-03-07 21:33:00,
2013-03-07 15:42:00,58.0,26.0,30.17,SSW,200,12.0,16.0,29,-99.99,,,-99.99,,2013-03-07 21:42:00,
2013-03-07 15:52:00,58.0,26.0,30.17,SSW,200,12.0,16.0,29,-99.99,,,-99.99,,2013-03-07 21:52:00,
2013-03-07 16:02:00,58.0,26.0,30.17,SSW,200,11.0,15.0,29,-99.99,,,-99.99,,2013-03-07 22:02:00,
2013-03-07 16:12:00,58.0,26.0,30.17,South,185,11.0,14.0,29,-99.99,,,-99.99,,2013-03-07 22:12:00,
2013-03-07 16:22:00,58.0,26.0,30.17,South,185,11.0,14.0,29,-99.99,,,-99.99,,2013-03-07 22:22:00,
2013-03-07 16:42:00,58.0,25.0,30.16,South,185,10.0,14.0,28,-99.99,,,-99.99,,2013-03-07 22:42:00,
2013-03-07 16:53:00,58.0,28.0,30.16,SSE,160,9.0,15.0,31,-99.99,,,-99.99,,2013-03-07 22:53:00,
2013-03-07 17:00:00,58.0,27.0,30.15,South,175,9.0,17.0,31,-99.99,,,-99.99,,2013-03-07 23:00:00,
2013-03-07 17:03:00,58.0,28.0,30.16,SSE,160,9.0,15.0,31,-99.99,,,-99.99,,2013-03-07 23:03:00,
2013-03-07 17:13:00,58.0,27.0,30.16,South,180,14.0,19.0,30,-99.99,,,-99.99,,2013-03-07 23:13:00,
2013-03-07 17:22:00,58.0,27.0,30.16,South,180,14.0,19.0,30,-99.99,,,-99.99,,2013-03-07 23:22:00,
2013-03-07 17:33:00,58.0,26.0,30.15,South,170,13.0,16.0,29,-99.99,,,-99.99,,2013-03-07 23:33:00,
2013-03-07 17:43:00,58.0,27.0,30.15,South,175,9.0,17.0,31,-99.99,,,-99.99,,2013-03-07 23:43:00,
2013-03-07 17:53:00,58.0,27.0,30.15,South,175,9.0,17.0,31,-99.99,,,-99.99,,2013-03-07 23:53:00,
2013-03-07 18:13:00,56.0,26.0,30.16,South,175,11.0,14.0,31,-99.99,,,-99.99,,2013-03-08 00:13:00,
2013-03-07 18:23:00,56.0,26.0,30.16,South,175,11.0,14.0,31,-99.99,,,-99.99,,2013-03-08 00:23:00,
2013-03-07 18:34:00,55.0,26.0,30.15,South,180,9.0,14.0,32,-99.99,,,-99.99,,2013-03-08 00:34:00,
2013-03-07 18:43:00,55.0,26.0,30.15,South,175,10.0,15.0,32,-99.99,,,-99.99,,2013-03-08 00:43:00,
2013-03-07 18:52:00,55.0,26.0,30.15,South,175,10.0,15.0,32,-99.99,,,-99.99,,2013-03-08 00:52:00,
2013-03-07 19:02:00,53.0,26.0,30.15,SSE,160,8.0,12.0,35,-99.99,,,-99.99,,2013-03-08 01:02:00,
2013-03-07 19:11:00,53.0,26.0,30.15,South,170,7.0,10.0,35,-99.99,,,-99.99,,2013-03-08 01:11:00,
2013-03-07 19:21:00,53.0,26.0,30.15,South,170,7.0,10.0,35,-99.99,,,-99.99,,2013-03-08 01:21:00,
2013-03-07 19:33:00,52.0,26.0,30.15,SSE,150,7.0,11.0,37,-99.99,,,-99.99,,2013-03-08 01:33:00,
2013-03-07 19:42:00,51.0,27.0,30.16,SSE,155,9.0,11.0,39,-99.99,,,-99.99,,2013-03-08 01:42:00,
2013-03-07 19:52:00,51.0,27.0,30.16,SSE,155,9.0,11.0,39,-99.99,,,-99.99,,2013-03-08 01:52:00,
2013-03-07 20:01:00,51.0,28.0,30.16,South,175,10.0,12.0,41,-99.99,,,-99.99,,2013-03-08 02:01:00,
2013-03-07 20:11:00,50.0,27.0,30.16,SSE,160,9.0,14.0,41,-99.99,,,-99.99,,2013-03-08 02:11:00,
2013-03-07 20:22:00,50.0,27.0,30.16,SSE,160,9.0,14.0,41,-99.99,,,-99.99,,2013-03-08 02:22:00,
2013-03-07 20:32:00,49.0,27.0,30.17,SSE,150,8.0,12.0,42,-99.99,,,-99.99,,2013-03-08 02:32:00,
2013-03-07 20:42:00,49.0,27.0,30.17,SSE,155,9.0,11.0,43,-99.99,,,-99.99,,2013-03-08 02:42:00,
2013-03-07 20:52:00,49.0,27.0,30.17,SSE,155,9.0,11.0,43,-99.99,,,-99.99,,2013-03-08 02:52:00,
2013-03-07 21:02:00,49.0,28.0,30.17,SSE,165,10.0,15.0,45,-99.99,,,-99.99,,2013-03-08 03:02:00,
2013-03-07 21:12:00,48.0,28.0,30.17,SSE,160,10.0,14.0,45,-99.99,,,-99.99,,2013-03-08 03:12:00,
2013-03-07 21:22:00,48.0,28.0,30.17,SSE,160,10.0,14.0,45,-99.99,,,-99.99,,2013-03-08 03:22:00,
2013-03-07 21:32:00,48.0,28.0,30.17,SSE,155,10.0,14.0,46,-99.99,,,-99.99,,2013-03-08 03:32:00,
2013-03-07 21:42:00,47.0,28.0,30.18,SSE,150,10.0,14.0,47,-99.99,,,-99.99,,2013-03-08 03:42:00,
2013-03-07 21:52:00,47.0,28.0,30.18,SSE,150,10.0,14.0,47,-99.99,,,-99.99,,2013-03-08 03:52:00,
2013-03-07 22:01:00,46.0,28.0,30.18,SSE,160,9.0,13.0,48,-99.99,,,-99.99,,2013-03-08 04:01:00,
2013-03-07 22:11:00,46.0,28.0,30.19,SSE,165,10.0,13.0,48,-99.99,,,-99.99,,2013-03-08 04:11:00,
2013-03-07 22:22:00,46.0,28.0,30.19,SSE,165,10.0,13.0,48,-99.99,,,-99.99,,2013-03-08 04:22:00,
2013-03-07 22:32:00,45.0,28.0,30.19,SSE,165,10.0,12.0,50,-99.99,,,-99.99,,2013-03-08 04:32:00,
2013-03-07 22:42:00,45.0,28.0,30.19,SSE,160,11.0,15.0,51,-99.99,,,-99.99,,2013-03-08 04:42:00,
2013-03-07 22:52:00,45.0,28.0,30.19,SSE,160,11.0,15.0,51,-99.99,,,-99.99,,2013-03-08 04:52:00,
2013-03-07 23:02:00,45.0,29.0,30.19,South,170,11.0,17.0,53,-99.99,,,-99.99,,2013-03-08 05:02:00,
2013-03-07 23:12:00,44.0,29.0,30.20,South,170,10.0,17.0,54,-99.99,,,-99.99,,2013-03-08 05:12:00,
2013-03-07 23:22:00,44.0,29.0,30.20,South,170,10.0,17.0,54,-99.99,,,-99.99,,2013-03-08 05:22:00,
2013-03-07 23:32:00,44.0,30.0,30.20,South,175,13.0,16.0,58,-99.99,,,-99.99,,2013-03-08 05:32:00,
2013-03-07 23:42:00,44.0,30.0,30.19,South,180,13.0,18.0,59,-99.99,,,-99.99,,2013-03-08 05:42:00,
2013-03-07 23:52:00,44.0,30.0,30.19,South,180,13.0,18.0,59,-99.99,,,-99.99,,2013-03-08 05:52:00,